Ana Sayfa
METAR-TAF:

METAR-TAF

Havaalanları :

Can Tho Havaalanı

Cần Thơ, Vietnam

Enlem: 10-05-07N, Boylam: 105-42-43E, yükseklik: 3 m

Güncel hava durumu gözlemi

Rapor saat 21:30 UTC de 17 dakika önce yapıldı.
Rüzgar güneybatıdan 2 kt
Sıcaklık 22°C
Nem 100%
Basınç 1011 hPa
Görüş mesafesi 10 km veya daha fazla
1500 m altında bulut yok ve kümülonimbus yok

METAR: VVCT 242130Z 22002KT CAVOK 22/22 Q1011 NOSIG

Saat: 04:47 (21:47 UTC)

Tahmin

Rapor saat 17:00 UTC de 4 saat ve 47 dakika önce yapıldı.
Ayın 24'si saat 18 UTC'den ayın 25'si saat 18 UTC'ye kadar geçerli Tahmin
Rüzgar doğudan 7 kt
Görüş mesafesi 10 km veya daha fazla
1500 ft yükseklikte parçalı bulutlu

TAF: VVCT 241700Z 2418/2518 09007KT 9999 SCT015

4.000'den fazla havaalanı için hava durumu gözlemleri ve tahminleri (METAR ve TAF raporları).

Kullanılabilir istasyonlar harita üzerinde sarı ve kırmızı noktalarla gösterilir.

İstasyonun adını görmek için fareyi noktanın üzerinde gezdirin.

Sonrasında hava gözlem ve tahminlerini görmek için tıklayın.

Haritayı değiştirmek için: yaklaştırmak için siyah artı işaretli yeşil düğmeye ve uzaklaştırmak için de eksi işaretli düğmeye hızla tıklayın; bitişik haritalar için yeşil okları kullanın.


METAR-TAF: